createdAt,value
2019-01-24T00:01:36.090Z,68.73
2019-01-24T00:04:05.917Z,68.69
2019-01-24T00:06:35.420Z,67.62
2019-01-24T00:09:08.358Z,68.01
2019-01-24T00:11:37.853Z,68.01
2019-01-24T00:14:07.336Z,67.71
2019-01-24T00:16:36.836Z,68.34
2019-01-24T00:19:06.554Z,68.10
2019-01-24T00:21:36.055Z,68.50
2019-01-24T00:24:05.561Z,68.13
2019-01-24T00:26:35.180Z,68.13
2019-01-24T00:29:04.786Z,68.17
2019-01-24T00:31:34.270Z,68.96
2019-01-24T00:34:03.973Z,67.60
2019-01-24T00:36:33.627Z,68.89
2019-01-24T00:39:03.704Z,69.12
2019-01-24T00:41:33.188Z,68.50
2019-01-24T00:44:02.832Z,68.65
2019-01-24T00:46:33.361Z,67.73
2019-01-24T00:49:02.863Z,68.68
2019-01-24T00:51:32.362Z,67.93
2019-01-24T00:54:02.064Z,67.70
2019-01-24T00:56:31.737Z,68.04
2019-01-24T00:59:01.199Z,67.99
2019-01-24T01:01:30.691Z,68.61
2019-01-24T01:04:00.164Z,68.62
2019-01-24T01:06:29.714Z,68.67
2019-01-24T01:08:59.422Z,69.19
2019-01-24T01:11:28.885Z,68.52
2019-01-24T01:13:58.435Z,68.94
2019-01-24T01:16:28.009Z,69.23
2019-01-24T01:18:57.499Z,68.94
2019-01-24T01:21:27.000Z,69.83
2019-01-24T01:23:56.589Z,67.73
2019-01-24T01:26:26.090Z,67.90
2019-01-24T01:28:55.583Z,68.80
2019-01-24T01:31:25.175Z,68.55
2019-01-24T01:33:54.702Z,69.77
2019-01-24T01:36:24.224Z,69.91
2019-01-24T01:38:53.774Z,70.27
2019-01-24T01:41:23.303Z,68.37
2019-01-24T01:43:52.754Z,68.60
2019-01-24T01:46:22.408Z,67.83
2019-01-24T01:48:51.864Z,68.42
2019-01-24T01:51:21.335Z,68.54
2019-01-24T01:53:50.858Z,68.59
2019-01-24T01:56:20.349Z,69.08
2019-01-24T01:58:49.881Z,68.41
2019-01-24T02:01:19.360Z,68.17
2019-01-24T02:03:48.881Z,69.73
2019-01-24T02:06:18.361Z,69.57
2019-01-24T02:08:47.836Z,69.57
2019-01-24T02:11:17.395Z,69.82
2019-01-24T02:13:46.857Z,69.82
2019-01-24T02:16:16.428Z,69.41
2019-01-24T02:18:45.901Z,69.75
2019-01-24T02:21:15.592Z,68.42
2019-01-24T02:23:45.088Z,68.65
2019-01-24T02:26:14.561Z,68.65
2019-01-24T02:28:44.108Z,69.65
2019-01-24T02:31:13.585Z,69.13
2019-01-24T02:33:43.081Z,69.13
2019-01-24T02:36:12.546Z,68.65
2019-01-24T02:38:42.064Z,68.86
2019-01-24T02:41:11.539Z,68.65
2019-01-24T02:43:41.068Z,68.62
2019-01-24T02:46:10.573Z,68.62
2019-01-24T02:48:40.042Z,69.19
2019-01-24T02:51:09.543Z,68.50
2019-01-24T02:53:39.010Z,68.50
2019-01-24T02:56:08.651Z,67.99
2019-01-24T02:58:38.124Z,69.00
2019-01-24T03:01:07.601Z,67.16
2019-01-24T03:03:37.128Z,66.56
2019-01-24T03:06:06.596Z,66.04
2019-01-24T03:08:36.110Z,67.07
2019-01-24T03:11:05.862Z,67.07
2019-01-24T03:13:35.349Z,66.77
2019-01-24T03:16:05.030Z,66.77
2019-01-24T03:18:34.732Z,67.23
2019-01-24T03:21:04.413Z,67.23
2019-01-24T03:23:33.937Z,67.58
2019-01-24T03:26:03.414Z,67.39
2019-01-24T03:28:32.916Z,66.68
2019-01-24T03:31:02.422Z,66.79
2019-01-24T03:33:31.885Z,66.79
2019-01-24T03:36:01.685Z,65.97
2019-01-24T03:38:31.167Z,65.97
2019-01-24T03:41:00.642Z,66.40
2019-01-24T03:43:30.131Z,66.67
2019-01-24T03:45:59.643Z,66.23
2019-01-24T03:48:29.343Z,66.15
2019-01-24T03:50:58.823Z,66.75
2019-01-24T03:53:28.329Z,66.30
2019-01-24T03:55:57.919Z,66.30
2019-01-24T03:58:27.602Z,66.84
2019-01-24T04:00:57.333Z,66.98
2019-01-24T04:03:26.834Z,66.98
2019-01-24T04:05:56.324Z,66.65
2019-01-24T04:08:25.905Z,67.28
2019-01-24T04:10:55.754Z,67.28
2019-01-24T04:13:25.296Z,66.16
2019-01-24T04:15:55.066Z,65.63
2019-01-24T04:18:24.607Z,67.25
2019-01-24T04:20:54.099Z,67.25
2019-01-24T04:23:24.032Z,67.35
2019-01-24T04:25:53.547Z,67.46
2019-01-24T04:28:23.018Z,67.46
2019-01-24T04:30:52.541Z,67.00
2019-01-24T04:33:22.021Z,67.40
2019-01-24T04:35:51.666Z,67.02
2019-01-24T04:38:21.151Z,67.02
2019-01-24T04:40:50.674Z,67.95
2019-01-24T04:43:20.182Z,67.95
2019-01-24T04:45:49.661Z,67.81
2019-01-24T04:48:19.251Z,67.64
2019-01-24T04:50:48.764Z,67.54
2019-01-24T04:53:18.250Z,68.18
2019-01-24T04:55:47.787Z,67.47
2019-01-24T04:58:17.261Z,67.26
2019-01-24T05:00:46.764Z,66.97
2019-01-24T05:03:16.299Z,67.48
2019-01-24T05:05:45.900Z,67.48
2019-01-24T05:08:15.396Z,67.53
2019-01-24T05:10:44.981Z,68.28
2019-01-24T05:13:14.518Z,68.28
2019-01-24T05:15:43.970Z,68.49
2019-01-24T05:18:13.666Z,68.67
2019-01-24T05:20:43.261Z,68.07
2019-01-24T05:23:12.740Z,68.82
2019-01-24T05:25:42.262Z,68.93
2019-01-24T05:28:11.764Z,69.25
2019-01-24T05:30:41.314Z,69.25
2019-01-24T05:33:10.950Z,69.49
2019-01-24T05:35:40.548Z,69.49
2019-01-24T05:38:10.243Z,68.93
2019-01-24T05:40:39.933Z,68.93
2019-01-24T05:43:09.426Z,69.20
2019-01-24T05:45:38.944Z,69.47
2019-01-24T05:48:08.485Z,69.94
2019-01-24T05:50:37.953Z,69.94
2019-01-24T05:53:07.459Z,70.40
2019-01-24T05:55:36.990Z,70.85
2019-01-24T05:58:06.451Z,70.85
2019-01-24T06:00:38.925Z,71.25
2019-01-24T06:03:08.423Z,70.57
2019-01-24T06:05:41.817Z,70.20
2019-01-24T06:08:09.730Z,69.87
2019-01-24T06:10:39.295Z,69.87
2019-01-24T06:13:08.786Z,70.57
2019-01-24T06:15:38.317Z,70.31
2019-01-24T06:18:07.829Z,70.31
2019-01-24T06:20:37.313Z,70.43
2019-01-24T06:23:06.821Z,70.86
2019-01-24T06:25:36.294Z,70.86
2019-01-24T06:28:06.398Z,71.21
2019-01-24T06:30:35.906Z,70.43
2019-01-24T06:33:05.420Z,70.17
2019-01-24T06:35:34.944Z,70.09
2019-01-24T06:38:04.634Z,70.09
2019-01-24T06:40:34.238Z,70.73
2019-01-24T06:43:03.914Z,71.39
2019-01-24T06:45:33.445Z,70.58
2019-01-24T06:48:03.097Z,71.21
2019-01-24T06:50:34.240Z,70.86
2019-01-24T06:53:03.739Z,70.86
2019-01-24T06:55:33.207Z,70.69
2019-01-24T06:58:03.083Z,70.26
2019-01-24T07:00:32.636Z,70.53
2019-01-24T07:03:02.118Z,70.53
2019-01-24T07:05:31.607Z,69.73
2019-01-24T07:08:01.069Z,69.73
2019-01-24T07:10:30.749Z,69.42
2019-01-24T07:13:00.374Z,69.42
2019-01-24T07:15:29.932Z,69.42
2019-01-24T07:17:59.431Z,69.37
2019-01-24T07:20:28.937Z,69.25
2019-01-24T07:22:58.449Z,69.19
2019-01-24T07:25:29.080Z,69.19
2019-01-24T07:27:58.583Z,68.79
2019-01-24T07:30:28.115Z,68.98
2019-01-24T07:32:59.719Z,69.15
2019-01-24T07:35:29.367Z,70.73
2019-01-24T07:37:58.872Z,70.24
2019-01-24T07:40:28.468Z,71.25
2019-01-24T07:42:57.946Z,70.49
2019-01-24T07:45:32.852Z,71.47
2019-01-24T07:48:02.387Z,71.47
2019-01-24T07:50:32.132Z,70.29
2019-01-24T07:53:01.658Z,70.29
2019-01-24T07:55:31.184Z,71.82
2019-01-24T07:58:00.888Z,70.59
2019-01-24T08:00:30.785Z,71.67
2019-01-24T08:03:00.502Z,70.61
2019-01-24T08:05:30.212Z,70.61
2019-01-24T08:08:00.000Z,70.86
2019-01-24T08:10:29.562Z,70.19
2019-01-24T08:12:59.045Z,69.75
2019-01-24T08:15:29.228Z,70.48
2019-01-24T08:17:58.967Z,70.48
2019-01-24T08:20:29.077Z,69.80
2019-01-24T08:22:58.590Z,71.03
2019-01-24T08:25:28.091Z,70.74
2019-01-24T08:27:57.555Z,70.02
2019-01-24T08:30:32.566Z,69.33
2019-01-24T08:33:02.038Z,69.73
2019-01-24T08:35:31.740Z,69.63
2019-01-24T08:38:01.264Z,70.09
2019-01-24T08:40:30.732Z,68.64
2019-01-24T08:43:00.295Z,68.29
2019-01-24T08:45:29.765Z,70.11
2019-01-24T08:47:59.304Z,70.11
2019-01-24T08:50:28.763Z,68.96
2019-01-24T08:52:58.647Z,68.33
2019-01-24T08:55:33.935Z,68.39
2019-01-24T08:58:03.720Z,68.01
2019-01-24T09:00:33.252Z,68.49
2019-01-24T09:03:02.766Z,67.96
2019-01-24T09:05:32.568Z,67.65
2019-01-24T09:08:02.044Z,67.58
2019-01-24T09:10:33.805Z,66.39
2019-01-24T09:13:03.653Z,67.97
2019-01-24T09:15:33.263Z,67.58
2019-01-24T09:18:02.779Z,66.80
2019-01-24T09:20:32.357Z,67.51
2019-01-24T09:23:01.978Z,68.23
2019-01-24T09:25:31.518Z,67.47
2019-01-24T09:28:01.107Z,66.90
2019-01-24T09:30:30.899Z,67.17
2019-01-24T09:33:00.483Z,66.68
2019-01-24T09:35:29.961Z,66.00
2019-01-24T09:37:59.651Z,66.07
2019-01-24T09:40:29.169Z,66.91
2019-01-24T09:42:58.698Z,67.69
2019-01-24T09:45:29.709Z,66.55
2019-01-24T09:48:01.011Z,66.53
2019-01-24T09:50:31.233Z,67.04
2019-01-24T09:53:00.745Z,64.67
2019-01-24T09:55:30.540Z,65.59
2019-01-24T09:58:00.075Z,65.01
2019-01-24T10:00:34.381Z,64.31
2019-01-24T10:03:04.085Z,65.41
2019-01-24T10:05:33.547Z,66.55
2019-01-24T10:08:03.036Z,64.30
2019-01-24T10:10:32.555Z,66.06
2019-01-24T10:13:02.141Z,64.35
2019-01-24T10:15:31.855Z,65.16
2019-01-24T10:18:01.345Z,64.63
2019-01-24T10:20:30.901Z,65.24
2019-01-24T10:23:00.418Z,65.33
2019-01-24T10:25:35.079Z,64.98
2019-01-24T10:28:04.689Z,64.21
2019-01-24T10:30:34.184Z,64.19
2019-01-24T10:33:04.132Z,64.88
2019-01-24T10:35:33.606Z,64.05
2019-01-24T10:38:03.123Z,63.34
2019-01-24T10:40:33.563Z,63.61
2019-01-24T10:43:03.053Z,63.25
2019-01-24T10:45:33.004Z,64.05
2019-01-24T10:48:02.518Z,63.35
2019-01-24T10:50:32.115Z,62.61
2019-01-24T10:53:01.633Z,65.10
2019-01-24T10:55:31.191Z,63.49
2019-01-24T10:58:02.867Z,64.52
2019-01-24T11:00:38.271Z,66.39
2019-01-24T11:03:10.530Z,67.15
2019-01-24T11:05:40.013Z,65.33
2019-01-24T11:08:09.507Z,66.16
2019-01-24T11:10:39.118Z,65.19
2019-01-24T11:13:08.610Z,64.68
2019-01-24T11:15:38.347Z,65.47
2019-01-24T11:18:08.936Z,65.46
2019-01-24T11:20:38.510Z,65.10
2019-01-24T11:23:08.050Z,66.07
2019-01-24T11:25:37.558Z,66.64
2019-01-24T11:28:07.242Z,66.12
2019-01-24T11:30:37.120Z,66.58
2019-01-24T11:33:07.759Z,65.92
2019-01-24T11:35:38.209Z,66.02
2019-01-24T11:38:08.213Z,66.24
2019-01-24T11:40:37.710Z,65.10
2019-01-24T11:43:07.915Z,64.77
2019-01-24T11:45:43.034Z,66.86
2019-01-24T11:48:12.537Z,67.14
2019-01-24T11:50:42.123Z,65.35
2019-01-24T11:53:11.743Z,64.53
2019-01-24T11:55:41.295Z,63.91
2019-01-24T11:58:10.757Z,63.83
2019-01-24T12:00:45.754Z,63.44
2019-01-24T12:03:15.215Z,63.23
2019-01-24T12:05:44.808Z,64.16
2019-01-24T12:08:14.301Z,64.01
2019-01-24T12:10:43.779Z,62.89
2019-01-24T12:13:13.289Z,63.26
2019-01-24T12:15:42.806Z,62.93
2019-01-24T12:18:12.314Z,64.75
2019-01-24T12:20:41.787Z,62.11
2019-01-24T12:23:11.307Z,63.39
2019-01-24T12:25:40.790Z,64.18
2019-01-24T12:28:10.318Z,63.20
2019-01-24T12:30:39.791Z,62.80
2019-01-24T12:33:09.290Z,61.71
2019-01-24T12:35:38.904Z,63.55
2019-01-24T12:38:08.589Z,63.55
2019-01-24T12:40:38.072Z,63.57
2019-01-24T12:43:07.533Z,63.50
2019-01-24T12:45:38.246Z,63.14
2019-01-24T12:48:08.286Z,60.90
2019-01-24T12:50:37.999Z,63.40
2019-01-24T12:53:08.385Z,64.38
2019-01-24T12:55:37.942Z,63.94
2019-01-24T12:58:07.436Z,64.66
2019-01-24T13:00:40.611Z,64.66
2019-01-24T13:03:10.323Z,65.19
2019-01-24T13:05:39.797Z,64.13
2019-01-24T13:08:09.738Z,64.37
2019-01-24T13:10:39.346Z,65.82
2019-01-24T13:13:09.040Z,65.82
2019-01-24T13:15:38.775Z,65.28
2019-01-24T13:18:08.546Z,63.45
2019-01-24T13:20:38.267Z,62.14
2019-01-24T13:23:08.120Z,62.36
2019-01-24T13:25:38.299Z,61.73
2019-01-24T13:28:08.145Z,65.12
2019-01-24T13:30:38.122Z,67.01
2019-01-24T13:33:08.468Z,67.01
2019-01-24T13:35:38.590Z,66.26
2019-01-24T13:38:08.753Z,67.04
2019-01-24T13:40:38.299Z,67.04
2019-01-24T13:43:08.687Z,64.91
2019-01-24T13:45:39.776Z,64.91
2019-01-24T13:48:09.572Z,65.50
2019-01-24T13:50:39.075Z,65.18
2019-01-24T13:53:09.139Z,66.28
2019-01-24T13:55:39.494Z,66.28
2019-01-24T13:58:09.684Z,64.28
2019-01-24T14:00:40.746Z,64.38
2019-01-24T14:03:44.452Z,64.38
2019-01-24T14:06:13.920Z,64.34
2019-01-24T14:08:43.528Z,65.00
2019-01-24T14:11:18.000Z,65.00
2019-01-24T14:13:44.290Z,66.31
2019-01-24T14:16:13.811Z,64.46
2019-01-24T14:18:43.272Z,65.51
2019-01-24T14:21:12.758Z,65.51
2019-01-24T14:23:42.255Z,67.55
2019-01-24T14:26:11.814Z,64.81
2019-01-24T14:28:41.291Z,64.49
2019-01-24T14:31:11.025Z,65.71
2019-01-24T14:33:40.482Z,65.71
2019-01-24T14:36:10.045Z,64.16
2019-01-24T14:38:39.822Z,63.35
2019-01-24T14:41:09.320Z,63.35
2019-01-24T14:43:38.827Z,62.31
2019-01-24T14:46:08.417Z,62.81
2019-01-24T14:48:37.960Z,62.81
2019-01-24T14:51:07.418Z,63.43
2019-01-24T14:53:37.065Z,63.15
2019-01-24T14:56:06.575Z,63.56
2019-01-24T14:58:36.075Z,63.56
2019-01-24T15:01:26.804Z,65.54
2019-01-24T15:03:57.324Z,63.17
2019-01-24T15:06:26.951Z,63.35
2019-01-24T15:08:56.711Z,64.94
2019-01-24T15:11:26.196Z,64.00
2019-01-24T15:13:55.775Z,64.16
2019-01-24T15:16:25.967Z,63.27
2019-01-24T15:18:55.514Z,62.74
2019-01-24T15:21:25.184Z,62.91
2019-01-24T15:23:54.711Z,62.52
2019-01-24T15:26:24.193Z,62.52
2019-01-24T15:28:53.697Z,63.99
2019-01-24T15:31:23.148Z,63.99
2019-01-24T15:33:52.788Z,61.21
2019-01-24T15:36:22.353Z,61.29
2019-01-24T15:38:51.831Z,61.74
2019-01-24T15:41:21.377Z,62.78
2019-01-24T15:43:50.860Z,62.09
2019-01-24T15:46:20.456Z,62.46
2019-01-24T15:48:49.933Z,61.30
2019-01-24T15:51:19.746Z,62.16
2019-01-24T15:53:49.346Z,61.17
2019-01-24T15:56:18.840Z,59.80
2019-01-24T15:58:48.351Z,59.80
2019-01-24T16:01:17.819Z,60.42
2019-01-24T16:03:47.335Z,60.11
2019-01-24T16:06:16.802Z,59.28
2019-01-24T16:08:46.396Z,59.78
2019-01-24T16:11:15.978Z,60.12
2019-01-24T16:13:45.607Z,60.69
2019-01-24T16:16:15.142Z,60.50
2019-01-24T16:18:44.680Z,60.07
2019-01-24T16:21:14.821Z,60.80
2019-01-24T16:23:44.693Z,60.67
2019-01-24T16:26:15.728Z,61.07
2019-01-24T16:31:14.120Z,60.51
2019-01-24T16:33:43.709Z,60.51
2019-01-24T16:36:13.315Z,60.82
2019-01-24T16:38:43.130Z,62.18
2019-01-24T16:41:13.101Z,62.92
2019-01-24T16:43:43.183Z,61.82
2019-01-24T16:46:12.902Z,61.52
2019-01-24T16:48:42.832Z,61.61
2019-01-24T16:51:12.493Z,61.61
2019-01-24T16:53:42.225Z,60.97
2019-01-24T16:56:12.013Z,61.33
2019-01-24T16:58:41.628Z,61.73
2019-01-24T17:01:17.784Z,62.71
2019-01-24T17:03:47.409Z,63.77
2019-01-24T17:06:17.296Z,64.62
2019-01-24T17:08:47.734Z,64.81
2019-01-24T17:11:17.279Z,66.40
2019-01-24T17:13:47.003Z,68.64
2019-01-24T17:16:16.488Z,67.15
2019-01-24T17:18:45.964Z,66.79
2019-01-24T17:21:15.464Z,66.69
2019-01-24T17:23:45.078Z,67.90
2019-01-24T17:26:14.722Z,68.64
2019-01-24T17:28:44.290Z,68.70
2019-01-24T17:31:13.872Z,68.84
2019-01-24T17:33:43.531Z,69.45
2019-01-24T17:36:13.042Z,70.26
2019-01-24T17:38:42.511Z,70.34
2019-01-24T17:41:12.102Z,69.91
2019-01-24T17:43:41.705Z,69.91
2019-01-24T17:46:11.235Z,70.33
2019-01-24T17:48:40.922Z,70.33
2019-01-24T17:51:10.509Z,70.68
2019-01-24T17:53:43.219Z,70.34
2019-01-24T17:56:12.796Z,70.34
2019-01-24T17:58:42.368Z,70.64
2019-01-24T18:01:11.853Z,71.07
2019-01-24T18:03:42.606Z,71.70
2019-01-24T18:06:12.339Z,71.17
2019-01-24T18:08:41.988Z,71.22
2019-01-24T18:11:11.465Z,71.02
2019-01-24T18:13:40.969Z,71.02
2019-01-24T18:16:10.686Z,72.21
2019-01-24T18:18:40.201Z,72.21
2019-01-24T18:21:09.976Z,72.20
2019-01-24T18:23:39.586Z,72.20
2019-01-24T18:26:09.108Z,72.35
2019-01-24T18:28:38.787Z,72.41
2019-01-24T18:31:08.274Z,72.41
2019-01-24T18:33:37.985Z,72.50
2019-01-24T18:36:07.679Z,71.84
2019-01-24T18:38:38.617Z,71.56
2019-01-24T18:41:08.969Z,71.94
2019-01-24T18:43:39.237Z,70.77
2019-01-24T18:46:08.850Z,69.90
2019-01-24T18:48:38.323Z,70.19
2019-01-24T18:51:07.821Z,71.08
2019-01-24T18:53:37.335Z,71.08
2019-01-24T18:56:06.943Z,70.42
2019-01-24T18:58:36.459Z,70.80
2019-01-24T19:01:06.213Z,72.08
2019-01-24T19:03:35.720Z,70.91
2019-01-24T19:06:05.435Z,70.91
2019-01-24T19:08:34.940Z,70.96
2019-01-24T19:11:05.036Z,71.88
2019-01-24T19:13:34.812Z,71.49
2019-01-24T19:16:06.949Z,71.43
2019-01-24T19:18:36.987Z,71.59
2019-01-24T19:21:06.701Z,71.97
2019-01-24T19:23:36.178Z,71.97
2019-01-24T19:26:05.897Z,71.34
2019-01-24T19:28:35.634Z,71.34
2019-01-24T19:31:05.261Z,72.71
2019-01-24T19:33:34.853Z,71.95
2019-01-24T19:36:04.457Z,71.46
2019-01-24T19:38:33.958Z,72.70
2019-01-24T19:41:03.492Z,72.41
2019-01-24T19:43:33.324Z,72.41
2019-01-24T19:46:02.898Z,72.96
2019-01-24T19:48:32.418Z,72.83
2019-01-24T19:51:02.209Z,73.07
2019-01-24T19:53:31.692Z,72.91
2019-01-24T19:56:01.168Z,72.17
2019-01-24T19:58:30.696Z,72.39
2019-01-24T20:01:00.206Z,71.51
2019-01-24T20:03:29.988Z,71.51
2019-01-24T20:05:59.568Z,72.43
2019-01-24T20:08:29.506Z,72.50
2019-01-24T20:10:59.140Z,72.47
2019-01-24T20:13:29.195Z,72.36
2019-01-24T20:15:58.772Z,72.36
2019-01-24T20:18:28.338Z,72.75
2019-01-24T20:20:57.902Z,73.09
2019-01-24T20:23:27.402Z,72.78
2019-01-24T20:25:56.911Z,72.43
2019-01-24T20:28:26.409Z,72.45
2019-01-24T20:30:55.935Z,72.85
2019-01-24T20:33:25.761Z,71.91
2019-01-24T20:35:57.922Z,71.91
2019-01-24T20:38:27.423Z,72.93
2019-01-24T20:40:57.006Z,72.93
2019-01-24T20:43:26.505Z,72.63
2019-01-24T20:45:55.994Z,72.87
2019-01-24T20:48:25.514Z,72.87
2019-01-24T20:50:55.145Z,72.49
2019-01-24T20:53:24.955Z,72.84
2019-01-24T20:55:54.450Z,72.99
2019-01-24T20:58:23.926Z,73.13
2019-01-24T21:00:53.437Z,73.13
2019-01-24T21:03:22.929Z,73.86
2019-01-24T21:05:52.499Z,73.86
2019-01-24T21:08:22.005Z,73.66
2019-01-24T21:10:51.671Z,74.08
2019-01-24T21:13:21.144Z,74.02
2019-01-24T21:15:50.643Z,73.96
2019-01-24T21:18:20.170Z,72.92
2019-01-24T21:20:49.745Z,72.92
2019-01-24T21:23:19.354Z,73.63
2019-01-24T21:25:48.845Z,73.39
2019-01-24T21:28:18.342Z,73.20
2019-01-24T21:30:47.953Z,73.38
2019-01-24T21:33:17.525Z,73.80
2019-01-24T21:35:47.090Z,73.67
2019-01-24T21:38:16.694Z,73.25
2019-01-24T21:40:46.204Z,72.72
2019-01-24T21:43:15.703Z,73.07
2019-01-24T21:45:45.335Z,73.43
2019-01-24T21:48:14.824Z,73.43
2019-01-24T21:50:46.294Z,73.83
2019-01-24T21:53:15.869Z,74.02
2019-01-24T21:55:45.373Z,73.11
2019-01-24T21:58:14.946Z,74.25
2019-01-24T22:00:44.513Z,74.18
2019-01-24T22:03:14.011Z,73.58
2019-01-24T22:05:43.561Z,73.72
2019-01-24T22:08:13.072Z,73.92
2019-01-24T22:10:42.745Z,73.71
2019-01-24T22:13:12.232Z,73.60
2019-01-24T22:15:41.715Z,73.74
2019-01-24T22:18:11.230Z,74.20
2019-01-24T22:20:40.963Z,73.87
2019-01-24T22:23:10.489Z,73.55
2019-01-24T22:25:40.070Z,73.75
2019-01-24T22:28:09.576Z,73.49
2019-01-24T22:30:44.674Z,73.45
2019-01-24T22:33:14.210Z,73.38
2019-01-24T22:35:43.734Z,73.79
2019-01-24T22:38:13.213Z,73.40
2019-01-24T22:40:42.825Z,73.40
2019-01-24T22:43:12.314Z,73.53
2019-01-24T22:45:41.919Z,73.60
2019-01-24T22:48:11.530Z,72.96
2019-01-24T22:50:41.143Z,72.95
2019-01-24T22:53:10.792Z,72.95
2019-01-24T22:55:40.283Z,73.40
2019-01-24T22:58:09.793Z,73.40
2019-01-24T23:01:15.994Z,73.04
2019-01-24T23:04:09.578Z,73.35
2019-01-24T23:06:39.246Z,73.00
2019-01-24T23:09:11.360Z,73.16
2019-01-24T23:11:40.902Z,72.93
2019-01-24T23:14:10.381Z,74.55
2019-01-24T23:16:39.873Z,73.18
2019-01-24T23:19:09.422Z,73.18
2019-01-24T23:21:39.316Z,73.86
2019-01-24T23:24:08.813Z,74.19
2019-01-24T23:26:38.272Z,74.29
2019-01-24T23:29:07.880Z,74.29
2019-01-24T23:31:37.433Z,73.16
2019-01-24T23:34:07.078Z,74.07
2019-01-24T23:36:36.713Z,73.47
2019-01-24T23:39:09.740Z,73.47
2019-01-24T23:41:39.291Z,73.21
2019-01-24T23:44:08.768Z,74.00
2019-01-24T23:46:38.477Z,72.93
2019-01-24T23:49:07.981Z,72.93
2019-01-24T23:51:37.622Z,72.38
2019-01-24T23:54:07.111Z,72.78
2019-01-24T23:56:36.636Z,72.78
2019-01-24T23:59:06.121Z,72.22
